createdAt,value
2022-11-25T00:04:17.084Z,13.82
2022-11-25T00:09:20.581Z,16.13
2022-11-25T00:14:23.742Z,14.30
2022-11-25T00:19:28.342Z,16.40
2022-11-25T00:24:31.569Z,16.53
2022-11-25T00:29:34.949Z,14.57
2022-11-25T00:34:39.437Z,18.17
2022-11-25T00:39:44.512Z,14.57
2022-11-25T00:44:48.536Z,18.73
2022-11-25T00:49:54.916Z,17.02
2022-11-25T00:54:58.121Z,14.90
2022-11-25T01:00:01.403Z,14.52
2022-11-25T01:05:06.914Z,16.80
2022-11-25T01:10:11.317Z,14.10
2022-11-25T01:15:15.008Z,15.55
2022-11-25T01:20:19.612Z,15.32
2022-11-25T01:25:22.817Z,14.33
2022-11-25T01:30:26.042Z,15.15
2022-11-25T01:35:31.245Z,14.70
2022-11-25T01:40:35.774Z,16.83
2022-11-25T01:45:39.710Z,15.20
2022-11-25T01:50:46.031Z,15.50
2022-11-25T01:55:52.087Z,15.05
2022-11-25T02:00:55.247Z,16.50
2022-11-25T02:06:06.135Z,16.63
2022-11-25T02:11:09.704Z,17.33
2022-11-25T02:16:12.959Z,14.50
2022-11-25T02:21:20.539Z,17.23
2022-11-25T02:26:25.502Z,17.45
2022-11-25T02:31:28.698Z,16.97
2022-11-25T02:36:32.008Z,16.17
2022-11-25T02:41:40.902Z,15.45
2022-11-25T02:46:45.099Z,16.02
2022-11-25T02:51:49.026Z,14.80
2022-11-25T02:56:55.351Z,14.25
2022-11-25T03:01:58.792Z,14.18
2022-11-25T03:07:03.402Z,15.18
2022-11-25T03:12:19.939Z,13.32
2022-11-25T03:17:23.385Z,14.27
2022-11-25T03:22:26.986Z,11.85
2022-11-25T03:27:31.507Z,12.95
2022-11-25T03:32:35.054Z,12.43
2022-11-25T03:37:38.792Z,11.95
2022-11-25T03:42:44.666Z,12.60
2022-11-25T03:47:48.489Z,12.70
2022-11-25T03:52:51.758Z,12.88
2022-11-25T03:57:57.609Z,14.20
2022-11-25T04:03:02.549Z,12.02
2022-11-25T04:08:08.280Z,10.40
2022-11-25T04:18:20.051Z,11.30
2022-11-25T04:23:26.886Z,13.23
2022-11-25T04:28:39.061Z,13.95
2022-11-25T04:33:42.403Z,11.60
2022-11-25T04:38:46.633Z,10.63
2022-11-25T04:43:51.207Z,11.88
2022-11-25T04:48:54.882Z,12.27
2022-11-25T04:53:58.799Z,13.90
2022-11-25T04:59:22.088Z,13.95
2022-11-25T05:04:25.322Z,14.13
2022-11-25T05:09:28.662Z,14.52
2022-11-25T05:14:55.930Z,13.60
2022-11-25T05:20:00.761Z,11.27
2022-11-25T05:25:06.633Z,12.18
2022-11-25T05:30:16.332Z,15.02
2022-11-25T05:35:21.577Z,13.20
2022-11-25T05:40:25.020Z,12.98
2022-11-25T05:45:40.635Z,13.23
2022-11-25T05:50:45.754Z,13.40
2022-11-25T05:55:56.625Z,14.82
2022-11-25T06:01:23.277Z,14.67
2022-11-25T06:06:26.523Z,14.23
2022-11-25T06:11:30.023Z,14.35
2022-11-25T06:16:34.619Z,14.90
2022-11-25T06:21:48.768Z,12.98
2022-11-25T06:26:52.607Z,14.23
2022-11-25T06:31:57.110Z,13.30
2022-11-25T06:37:26.293Z,13.90
2022-11-25T06:42:29.490Z,14.18
2022-11-25T06:47:34.194Z,13.23
2022-11-25T06:52:37.814Z,12.50
2022-11-25T06:57:41.029Z,16.55
2022-11-25T07:02:48.787Z,15.80
2022-11-25T07:07:52.414Z,15.70
2022-11-25T07:12:55.641Z,16.02
2022-11-25T07:18:00.139Z,17.17
2022-11-25T07:23:03.486Z,16.57
2022-11-25T07:28:06.586Z,15.57
2022-11-25T07:33:11.049Z,15.25
2022-11-25T07:38:14.171Z,14.40
2022-11-25T07:43:17.325Z,18.77
2022-11-25T07:48:21.849Z,15.88
2022-11-25T07:53:24.973Z,19.30
2022-11-25T07:58:28.378Z,19.90
2022-11-25T08:03:34.488Z,20.60
2022-11-25T08:08:41.315Z,20.65
2022-11-25T08:13:45.795Z,20.60
2022-11-25T08:18:50.781Z,20.60
2022-11-25T08:23:54.684Z,20.95
2022-11-25T08:28:58.719Z,22.50
2022-11-25T08:34:04.217Z,19.90
2022-11-25T08:39:29.057Z,19.35
2022-11-25T08:44:31.119Z,19.52
2022-11-25T08:49:40.857Z,17.60
2022-11-25T08:54:44.576Z,14.32
2022-11-25T08:59:47.742Z,12.88
2022-11-25T09:04:52.371Z,11.75
2022-11-25T09:09:55.617Z,12.00
2022-11-25T09:14:58.920Z,11.82
2022-11-25T09:20:05.249Z,11.07
2022-11-25T09:25:09.047Z,11.48
2022-11-25T09:30:12.902Z,11.13
2022-11-25T09:35:18.115Z,10.10
2022-11-25T09:40:30.240Z,10.27
2022-11-25T09:46:02.154Z,13.80
2022-11-25T09:51:15.774Z,12.07
2022-11-25T09:56:31.610Z,12.23
2022-11-25T10:01:44.805Z,12.68
2022-11-25T10:06:55.634Z,11.18
2022-11-25T10:12:03.930Z,12.88
2022-11-25T10:17:15.384Z,15.88
2022-11-25T10:22:24.984Z,15.50
2022-11-25T10:27:37.524Z,15.68
2022-11-25T10:32:44.070Z,13.68
2022-11-25T10:37:55.104Z,14.32
2022-11-25T10:42:58.878Z,13.48
2022-11-25T10:48:13.195Z,11.43
2022-11-25T10:53:22.450Z,13.63
2022-11-25T10:58:33.248Z,11.85
2022-11-25T11:03:36.693Z,12.35
2022-11-25T11:08:43.507Z,9.73
2022-11-25T11:13:48.402Z,9.85
2022-11-25T11:18:52.429Z,8.60
2022-11-25T11:23:59.701Z,9.40
2022-11-25T11:29:09.684Z,12.32
2022-11-25T11:34:32.187Z,11.82
2022-11-25T11:40:00.120Z,9.82
2022-11-25T11:45:19.896Z,9.95
2022-11-25T11:50:30.512Z,10.27
2022-11-25T11:56:00.315Z,9.02
2022-11-25T12:01:25.275Z,9.38
2022-11-25T12:06:34.902Z,10.02
2022-11-25T12:11:43.086Z,11.48
2022-11-25T12:16:52.117Z,9.98
2022-11-25T12:21:58.805Z,10.68
2022-11-25T12:27:08.672Z,11.52
2022-11-25T12:32:46.581Z,11.02
2022-11-25T12:37:56.673Z,12.10
2022-11-25T12:43:11.405Z,13.65
2022-11-25T12:48:20.003Z,13.48
2022-11-25T12:53:32.989Z,14.10
2022-11-25T12:58:49.476Z,12.95
2022-11-25T13:04:35.700Z,12.45
2022-11-25T13:10:03.801Z,14.52
2022-11-25T13:15:26.475Z,13.13
2022-11-25T13:20:39.438Z,15.77
2022-11-25T13:25:44.777Z,15.55
2022-11-25T13:30:51.636Z,15.73
2022-11-25T13:35:56.259Z,15.48
2022-11-25T13:41:01.456Z,16.73
2022-11-25T13:46:06.381Z,15.45
2022-11-25T13:51:18.415Z,13.70
2022-11-25T13:56:28.887Z,13.98
2022-11-25T14:01:33.415Z,14.18
2022-11-25T14:07:01.742Z,14.37
2022-11-25T14:12:23.094Z,12.55
2022-11-25T14:17:48.743Z,11.95
2022-11-25T14:23:35.475Z,14.88
2022-11-25T14:28:44.921Z,14.30
2022-11-25T14:33:55.720Z,13.90
2022-11-25T14:39:04.525Z,17.95
2022-11-25T14:44:14.280Z,15.68
2022-11-25T14:49:44.071Z,14.50
2022-11-25T14:59:47.620Z,14.43
2022-11-25T15:04:52.683Z,14.32
2022-11-25T15:09:56.807Z,13.50
2022-11-25T15:15:00.407Z,16.35
2022-11-25T15:20:12.665Z,14.90
2022-11-25T15:25:18.932Z,14.57
2022-11-25T15:30:24.848Z,14.07
2022-11-25T15:35:29.681Z,14.73
2022-11-25T15:40:36.798Z,13.90
2022-11-25T15:45:44.437Z,11.90
2022-11-25T15:50:49.025Z,13.40
2022-11-25T15:55:53.050Z,13.00
2022-11-25T16:01:01.566Z,16.30
2022-11-25T16:06:21.360Z,12.77
2022-11-25T16:11:25.737Z,14.50
2022-11-25T16:16:29.954Z,13.05
2022-11-25T16:21:45.800Z,14.33
2022-11-25T16:26:52.306Z,13.18
2022-11-25T16:31:55.587Z,14.15
2022-11-25T16:37:00.274Z,13.50
2022-11-25T16:42:04.584Z,14.33
2022-11-25T16:47:10.548Z,13.57
2022-11-25T16:52:15.201Z,12.45
2022-11-25T16:57:21.954Z,15.53
2022-11-25T17:02:25.361Z,14.07
2022-11-25T17:07:33.124Z,12.77
2022-11-25T17:12:38.605Z,15.77
2022-11-25T17:17:42.671Z,12.93
2022-11-25T17:22:48.505Z,14.60
2022-11-25T17:27:52.070Z,13.75
2022-11-25T17:33:00.818Z,14.32
2022-11-25T17:38:12.565Z,14.38
2022-11-25T17:43:17.884Z,15.48
2022-11-25T17:48:21.043Z,15.70
2022-11-25T17:53:25.889Z,15.30
2022-11-25T17:58:30.261Z,16.07
2022-11-25T18:03:33.425Z,13.48
2022-11-25T18:08:38.047Z,15.48
2022-11-25T18:13:43.487Z,13.03
2022-11-25T18:18:47.029Z,13.88
2022-11-25T18:23:52.033Z,16.65
2022-11-25T18:28:55.652Z,16.52
2022-11-25T18:33:58.983Z,16.10
2022-11-25T18:39:03.805Z,15.68
2022-11-25T18:44:18.162Z,14.88
2022-11-25T18:49:24.008Z,14.00
2022-11-25T18:54:28.655Z,15.70
2022-11-25T18:59:34.449Z,14.65
2022-11-25T19:04:38.531Z,14.70
2022-11-25T19:09:43.324Z,12.63
2022-11-25T19:14:47.914Z,17.53
2022-11-25T19:19:51.315Z,13.17
2022-11-25T19:24:59.017Z,15.45
2022-11-25T19:30:03.230Z,14.48
2022-11-25T19:35:08.842Z,15.45
2022-11-25T19:45:22.046Z,12.00
2022-11-25T19:50:27.665Z,13.05
2022-11-25T19:55:32.484Z,13.68
2022-11-25T20:00:36.540Z,13.73
2022-11-25T20:05:39.974Z,13.02
2022-11-25T20:10:44.868Z,12.48
2022-11-25T20:15:48.215Z,12.10
2022-11-25T20:20:58.045Z,13.68
2022-11-25T20:26:03.534Z,11.30
2022-11-25T20:31:10.657Z,12.07
2022-11-25T20:36:16.410Z,12.98
2022-11-25T20:41:27.294Z,13.18
2022-11-25T20:46:31.351Z,13.27
2022-11-25T20:51:34.807Z,12.40
2022-11-25T20:56:39.388Z,14.00
2022-11-25T21:01:42.777Z,12.67
2022-11-25T21:06:46.409Z,14.30
2022-11-25T21:11:51.081Z,12.25
2022-11-25T21:16:54.796Z,14.40
2022-11-25T21:21:58.140Z,11.90
2022-11-25T21:27:13.935Z,11.90
2022-11-25T21:32:21.036Z,11.77
2022-11-25T21:37:30.262Z,11.27
2022-11-25T21:42:35.285Z,10.35
2022-11-25T21:47:39.110Z,10.82
2022-11-25T21:52:42.475Z,12.27
2022-11-25T21:57:47.041Z,10.00
2022-11-25T22:02:50.287Z,11.63
2022-11-25T22:07:55.043Z,11.95
2022-11-25T22:12:59.947Z,11.18
2022-11-25T22:18:03.231Z,12.10
2022-11-25T22:23:13.801Z,12.02
2022-11-25T22:28:20.398Z,9.43
2022-11-25T22:33:28.866Z,10.75
2022-11-25T22:38:33.700Z,9.60
2022-11-25T22:43:50.980Z,9.00
2022-11-25T22:48:54.454Z,9.32
2022-11-25T22:53:57.825Z,9.50
2022-11-25T22:59:02.341Z,9.98
2022-11-25T23:04:06.733Z,8.13
2022-11-25T23:09:14.687Z,8.97
2022-11-25T23:14:19.267Z,7.90
2022-11-25T23:19:22.420Z,9.00
2022-11-25T23:24:25.598Z,8.13
2022-11-25T23:29:30.762Z,7.72
2022-11-25T23:34:34.836Z,9.23
2022-11-25T23:39:38.215Z,8.57
2022-11-25T23:44:42.768Z,9.20
2022-11-25T23:49:49.796Z,9.23
2022-11-25T23:54:54.043Z,8.45
2022-11-25T23:59:58.893Z,10.70
